Time;durP1;ratioP1;P1;durP2;ratioP2;P2;SDS_P1;SDS_P2;PMS_P1;PMS_P2;Temp;Humidity;BMP_temperature;BMP_pressure;BME280_temperature;BME280_humidity;BME280_pressure;Samples;Min_cycle;Max_cycle;Signal;HPM_P1;HPM_P2
2023/06/19 00:02:20;;;;;;;13.73;9.77;;;;;;;-141.97;67.78;47776.63;5017079;28;20557;-82
2023/06/19 00:04:45;;;;;;;13.50;9.83;;;;;;;-141.97;67.60;47728.59;5014583;28;20236;-84
2023/06/19 00:07:11;;;;;;;15.73;9.90;;;;;;;-141.97;67.98;47559.44;5015825;28;20174;-84
2023/06/19 00:09:36;;;;;;;12.67;10.00;;;;;;;-141.97;67.61;47595.97;5016931;28;20268;-85
2023/06/19 00:12:04;;;;;;;12.13;9.50;;;;;;;-141.97;68.14;47480.63;5017174;28;20546;-83
2023/06/19 00:14:29;;;;;;;10.93;9.40;;;;;;;-141.97;68.04;47690.16;5032178;28;20373;-84
2023/06/19 00:16:56;;;;;;;15.03;10.43;;;;;;;-141.97;67.85;47574.81;5016444;28;20554;-85
2023/06/19 00:19:22;;;;;;;13.03;10.03;;;;;;;-141.97;68.28;47453.72;5017592;28;20182;-85
2023/06/19 00:21:48;;;;;;;11.43;9.33;;;;;;;-141.97;67.75;47665.16;5015738;28;20620;-84
2023/06/19 00:24:13;;;;;;;13.90;10.17;;;;;;;-141.97;68.18;47474.88;5015285;28;20187;-85
2023/06/19 00:26:40;;;;;;;14.70;9.80;;;;;;;-141.97;67.96;47747.81;5014927;28;20198;-84
2023/06/19 00:29:06;;;;;;;11.67;9.67;;;;;;;-141.97;68.46;47838.16;5015595;28;20163;-85
2023/06/19 00:31:32;;;;;;;12.30;9.87;;;;;;;-141.97;68.39;47638.25;5015614;28;20166;-83
2023/06/19 00:33:57;;;;;;;12.03;9.67;;;;;;;-141.97;67.98;47603.66;5014482;28;20527;-84
2023/06/19 00:36:25;;;;;;;11.83;9.20;;;;;;;-141.97;67.92;47542.16;5014450;28;20167;-83
2023/06/19 00:38:52;;;;;;;13.30;9.60;;;;;;;-141.97;67.90;47630.56;5013512;28;20162;-83
2023/06/19 00:41:18;;;;;;;14.73;9.40;;;;;;;-141.97;67.98;47542.16;5012580;28;20171;-84
2023/06/19 00:43:43;;;;;;;11.20;9.27;;;;;;;-141.97;68.13;47680.53;5014224;28;20202;-84
2023/06/19 00:46:10;;;;;;;12.37;10.00;;;;;;;-141.97;68.09;47603.66;5030851;28;20697;-84
2023/06/19 00:48:36;;;;;;;12.80;9.40;;;;;;;-141.97;68.30;47438.34;5014663;28;20800;-84
2023/06/19 00:51:01;;;;;;;13.93;9.80;;;;;;;-141.97;68.79;47634.41;5014128;28;20166;-83
2023/06/19 00:53:27;;;;;;;12.10;9.57;;;;;;;-141.97;68.50;47590.19;5014059;28;20553;-82
2023/06/19 00:55:53;;;;;;;13.33;9.53;;;;;;;-141.97;69.29;47657.47;5013963;28;20166;-83
2023/06/19 00:58:22;;;;;;;12.20;9.63;;;;;;;-141.97;68.91;47392.22;5014383;28;20189;-83
2023/06/19 01:00:50;;;;;;;12.67;9.43;;;;;;;-141.97;69.07;47467.19;5014258;28;20163;-83
2023/06/19 01:03:16;;;;;;;13.10;9.27;;;;;;;-141.97;68.86;47707.44;5012797;28;20640;-83
2023/06/19 01:05:42;;;;;;;12.27;9.43;;;;;;;-141.97;68.97;47653.63;5013959;28;20194;-83
2023/06/19 01:08:27;;;;;;;12.40;9.40;;;;;;;-141.97;69.27;47692.06;5028399;28;20245;-83
2023/06/19 01:10:58;;;;;;;12.63;9.10;;;;;;;-141.97;69.12;47609.41;5013626;28;20178;-83
2023/06/19 01:13:38;;;;;;;11.77;9.17;;;;;;;-141.97;69.12;47665.16;5013821;28;20658;-83
2023/06/19 01:16:04;;;;;;;12.33;9.70;;;;;;;-141.97;69.33;47870.81;5012906;28;20250;-83
2023/06/19 01:18:32;;;;;;;13.53;9.33;;;;;;;-141.97;69.08;47584.44;5013667;28;20167;-82
2023/06/19 01:21:18;;;;;;;15.07;9.70;;;;;;;-141.97;69.54;47661.31;5013480;28;20198;-83
2023/06/19 01:23:44;;;;;;;12.17;9.27;;;;;;;-141.97;69.45;47680.53;5013336;28;20581;-83
2023/06/19 01:26:11;;;;;;;12.03;9.63;;;;;;;-141.97;69.74;47830.47;5014268;28;20188;-84
2023/06/19 01:28:39;;;;;;;13.73;9.47;;;;;;;-141.97;69.46;47817.00;5013919;28;20167;-84
2023/06/19 01:31:33;;;;;;;12.03;9.37;;;;;;;-141.97;69.75;47799.72;5012910;28;20549;-83
2023/06/19 01:34:00;;;;;;;12.77;9.27;;;;;;;-141.97;69.77;47678.63;5011302;28;20170;-83
2023/06/19 01:36:28;;;;;;;13.97;10.17;;;;;;;-141.97;69.70;47496.00;5010857;28;20258;-83
2023/06/19 01:38:57;;;;;;;12.57;9.37;;;;;;;-141.97;69.37;47509.47;5011205;28;20217;-82
2023/06/19 01:41:24;;;;;;;11.17;8.47;;;;;;;-141.97;69.05;47780.47;5011014;28;20178;-83
2023/06/19 01:43:50;;;;;;;10.93;8.70;;;;;;;-141.97;69.13;47718.97;5010508;28;20554;-83
2023/06/19 01:46:16;;;;;;;11.50;9.20;;;;;;;-141.97;69.12;47636.31;5010101;28;20202;-83
2023/06/19 01:48:42;;;;;;;11.50;9.50;;;;;;;-141.97;69.05;47818.94;5011225;28;20290;-84
2023/06/19 01:51:07;;;;;;;12.10;8.80;;;;;;;-141.97;69.08;47669.00;5011388;28;20556;-83
2023/06/19 01:53:34;;;;;;;12.13;8.70;;;;;;;-141.97;68.90;47574.81;5017640;28;20197;-83
2023/06/19 01:56:00;;;;;;;12.80;8.77;;;;;;;-141.97;68.57;47542.16;5011306;28;20169;-83
2023/06/19 01:58:26;;;;;;;11.87;8.90;;;;;;;-141.97;68.98;47805.47;4994846;28;20190;-83
2023/06/19 02:00:51;;;;;;;10.83;8.97;;;;;;;-141.97;68.86;47622.88;5010889;28;20190;-83
2023/06/19 02:03:16;;;;;;;11.63;8.60;;;;;;;-141.97;68.55;47540.22;4994357;28;20182;-82
2023/06/19 02:05:43;;;;;;;10.60;8.10;;;;;;;-141.97;67.96;47665.16;5010833;28;20201;-83
2023/06/19 02:08:08;;;;;;;10.03;7.97;;;;;;;-141.97;67.73;47676.69;5010456;28;20257;-83
2023/06/19 02:10:34;;;;;;;12.10;9.03;;;;;;;-141.97;67.58;47649.78;5010844;28;20693;-81
2023/06/19 02:13:00;;;;;;;10.63;8.53;;;;;;;-141.97;67.24;47630.56;5012072;28;20170;-82
2023/06/19 02:15:25;;;;;;;11.57;8.60;;;;;;;-141.97;67.14;47546.00;5012354;28;20174;-82
2023/06/19 02:17:54;;;;;;;11.70;8.03;;;;;;;-141.97;66.88;47559.44;5012873;28;20236;-82
2023/06/19 02:20:20;;;;;;;10.47;8.73;;;;;;;-141.97;66.58;47636.31;5012901;28;20186;-82
2023/06/19 02:22:46;;;;;;;11.20;8.70;;;;;;;-141.97;66.51;47551.75;5012546;28;20201;-82
2023/06/19 02:25:11;;;;;;;11.90;8.13;;;;;;;-141.97;66.45;47630.56;5012594;28;20198;-81
2023/06/19 02:27:37;;;;;;;10.40;8.30;;;;;;;-141.97;66.20;47684.38;5013945;28;20166;-83
2023/06/19 02:30:03;;;;;;;9.93;8.03;;;;;;;-141.97;65.91;47626.72;5016442;28;20174;-84
2023/06/19 02:32:28;;;;;;;11.87;8.10;;;;;;;-141.97;65.79;47661.31;5016508;28;20174;-81
2023/06/19 02:34:53;;;;;;;10.10;8.50;;;;;;;-141.97;65.66;47647.84;5016179;28;20167;-82
2023/06/19 02:37:19;;;;;;;10.40;8.27;;;;;;;-141.97;65.61;47826.63;5014699;28;20661;-84
2023/06/19 02:39:44;;;;;;;10.60;8.37;;;;;;;-141.97;65.46;47653.63;5014399;28;20750;-83
2023/06/19 02:42:10;;;;;;;12.50;8.70;;;;;;;-141.97;65.39;47740.13;5016974;28;20166;-82
2023/06/19 02:44:35;;;;;;;12.23;8.77;;;;;;;-141.97;65.51;47630.56;5015549;28;20564;-83
2023/06/19 02:47:01;;;;;;;11.13;7.90;;;;;;;-141.97;65.76;47672.84;5016460;28;20273;-83
2023/06/19 02:49:26;;;;;;;10.40;8.13;;;;;;;-141.97;65.68;47745.88;5015812;28;20179;-83
2023/06/19 02:51:52;;;;;;;13.13;8.67;;;;;;;-141.97;65.62;47597.88;5014479;28;20179;-82
2023/06/19 02:54:17;;;;;;;10.30;8.17;;;;;;;-141.97;65.35;47576.75;5015189;28;20174;-83
2023/06/19 02:56:42;;;;;;;12.90;8.53;;;;;;;-141.97;65.42;47578.66;5015175;28;20171;-83
2023/06/19 02:59:08;;;;;;;10.83;8.30;;;;;;;-141.97;65.69;47717.06;5015914;28;20265;-83
2023/06/19 03:01:34;;;;;;;13.37;8.90;;;;;;;-141.97;65.77;47813.16;5015252;28;20546;-81
2023/06/19 03:03:59;;;;;;;11.43;8.33;;;;;;;-141.97;65.79;47770.88;5015394;28;20608;-82
2023/06/19 03:06:25;;;;;;;11.73;8.33;;;;;;;-141.97;65.86;47526.75;5012284;28;20213;-82
2023/06/19 03:08:51;;;;;;;11.13;8.67;;;;;;;-141.97;66.52;47570.97;5015166;28;20305;-83
2023/06/19 03:11:16;;;;;;;12.03;8.77;;;;;;;-141.97;66.69;47686.31;5013624;28;20243;-82
2023/06/19 03:13:52;;;;;;;12.23;8.97;;;;;;;-141.97;67.32;47690.16;5015731;28;20226;-83
2023/06/19 03:16:18;;;;;;;11.40;8.60;;;;;;;-141.97;67.10;47745.88;5011852;28;20262;-83
2023/06/19 03:18:44;;;;;;;10.03;7.70;;;;;;;-141.97;67.68;47845.84;5012501;28;20172;-83
2023/06/19 03:21:14;;;;;;;11.77;8.53;;;;;;;-141.97;68.03;47818.94;5013446;28;20657;-83
2023/06/19 03:23:42;;;;;;;11.80;8.67;;;;;;;-141.97;68.30;47576.75;5012949;28;20283;-83
2023/06/19 03:26:08;;;;;;;11.40;8.40;;;;;;;-141.97;68.14;47553.69;5014408;28;20217;-83
2023/06/19 03:28:34;;;;;;;12.63;8.90;;;;;;;-141.97;68.25;47547.91;5013719;28;20171;-83
2023/06/19 03:31:00;;;;;;;12.17;8.50;;;;;;;-141.97;68.39;47701.69;5015418;28;20178;-81
2023/06/19 03:33:26;;;;;;;11.83;8.57;;;;;;;-141.97;68.57;47638.25;5015096;28;20201;-82
2023/06/19 03:35:51;;;;;;;11.63;9.03;;;;;;;-141.97;68.61;47605.56;5014972;28;20241;-82
2023/06/19 03:38:17;;;;;;;10.80;8.60;;;;;;;-141.97;68.36;47872.75;5014800;28;20254;-82
2023/06/19 03:40:42;;;;;;;14.00;8.67;;;;;;;-141.97;68.18;47694.00;5015011;28;20701;-82
2023/06/19 03:43:07;;;;;;;12.67;8.93;;;;;;;-141.97;68.21;47561.38;5016291;28;20189;-82
2023/06/19 03:45:33;;;;;;;12.83;8.70;;;;;;;-141.97;67.99;47670.91;5014490;28;20277;-83
2023/06/19 03:47:59;;;;;;;11.73;8.80;;;;;;;-141.97;67.41;47715.13;5014065;28;20640;-82
2023/06/19 03:50:24;;;;;;;10.80;8.20;;;;;;;-141.97;67.56;47690.16;5015644;28;20299;-82
2023/06/19 03:52:50;;;;;;;11.57;8.33;;;;;;;-141.97;67.32;47692.06;5015522;28;20174;-82
2023/06/19 03:55:15;;;;;;;10.90;8.07;;;;;;;-141.97;67.09;47663.22;5015192;28;20171;-82
2023/06/19 03:57:40;;;;;;;12.60;9.27;;;;;;;-141.97;66.45;47682.47;5015599;28;20178;-82
2023/06/19 04:00:07;;;;;;;12.90;8.13;;;;;;;-141.97;65.66;47863.13;5014356;28;20203;-82
2023/06/19 04:02:35;;;;;;;11.57;7.87;;;;;;;-141.97;65.37;47694.00;5014000;28;20178;-83
2023/06/19 04:05:01;;;;;;;13.10;8.40;;;;;;;-141.97;64.98;47699.75;5015229;28;20643;-82
2023/06/19 04:07:26;;;;;;;11.80;8.53;;;;;;;-141.97;64.76;47692.06;5015367;28;20177;-82
2023/06/19 04:09:52;;;;;;;10.40;7.97;;;;;;;-141.97;64.43;47695.91;5014562;28;20229;-82
2023/06/19 04:12:17;;;;;;;11.13;8.37;;;;;;;-141.97;64.65;47619.03;5014870;28;20199;-82
2023/06/19 04:14:42;;;;;;;10.67;7.93;;;;;;;-141.97;64.08;47688.22;5014734;28;20171;-82
2023/06/19 04:17:08;;;;;;;12.23;8.07;;;;;;;-141.97;63.46;47651.69;5015145;28;20170;-83
2023/06/19 04:19:33;;;;;;;9.87;7.90;;;;;;;-141.97;63.67;47611.34;5014843;28;20167;-82
2023/06/19 04:21:59;;;;;;;12.30;7.93;;;;;;;-141.97;63.32;47570.97;5014618;28;20274;-82
2023/06/19 04:24:24;;;;;;;14.77;8.63;;;;;;;-141.97;63.12;47663.22;5014353;28;20170;-82
2023/06/19 04:26:49;;;;;;;11.27;8.30;;;;;;;-141.97;62.65;47653.63;5029292;28;20252;-82
2023/06/19 04:29:16;;;;;;;12.53;8.10;;;;;;;-141.97;62.20;47584.44;5014969;28;20224;-82
2023/06/19 04:31:47;;;;;;;11.10;8.30;;;;;;;-141.97;61.93;47680.53;5014124;28;20170;-82
2023/06/19 04:34:16;;;;;;;11.80;7.87;;;;;;;-141.97;61.33;47653.63;5016558;28;20619;-82
2023/06/19 04:36:41;;;;;;;10.37;7.50;;;;;;;-141.97;61.14;47526.75;5014408;28;20162;-82
2023/06/19 04:39:07;;;;;;;11.67;7.70;;;;;;;-141.97;60.87;47669.00;5014641;28;20556;-83
2023/06/19 04:41:32;;;;;;;10.83;7.97;;;;;;;-141.97;60.71;47634.41;4997454;28;20210;-83
2023/06/19 04:43:58;;;;;;;14.13;8.50;;;;;;;-141.97;60.54;47584.44;5013406;28;20663;-83
2023/06/19 04:46:23;;;;;;;13.67;8.37;;;;;;;-141.97;60.44;47847.75;5015138;28;20353;-83
2023/06/19 04:48:50;;;;;;;12.40;7.77;;;;;;;-141.97;59.89;47753.56;5013840;28;20178;-82
2023/06/19 04:51:20;;;;;;;10.10;7.50;;;;;;;-141.97;60.07;47626.72;5012650;28;20154;-82
2023/06/19 04:53:49;;;;;;;9.80;7.70;;;;;;;-141.97;59.86;47809.31;5013377;28;20266;-83
2023/06/19 04:56:15;;;;;;;12.20;7.70;;;;;;;-141.97;59.66;47592.13;5013694;28;20225;-81
2023/06/19 04:58:45;;;;;;;10.83;7.67;;;;;;;-141.97;59.39;47588.28;5013146;28;20179;-82
2023/06/19 05:01:14;;;;;;;11.10;7.00;;;;;;;-141.97;59.09;47694.00;5014034;28;20174;-82
2023/06/19 05:03:40;;;;;;;10.30;7.80;;;;;;;-141.97;58.82;47645.94;5013353;28;20198;-82
2023/06/19 05:06:06;;;;;;;11.63;8.53;;;;;;;-141.97;58.82;47686.31;5013595;28;20200;-81
2023/06/19 05:08:31;;;;;;;12.83;8.10;;;;;;;-141.97;58.15;47651.69;5013664;28;20404;-82
2023/06/19 05:10:57;;;;;;;10.67;7.80;;;;;;;-141.97;57.75;47851.59;5013624;28;20191;-83
2023/06/19 05:13:23;;;;;;;13.03;7.53;;;;;;;-141.97;57.81;47642.09;5013185;28;20182;-82
2023/06/19 05:15:50;;;;;;;11.03;8.30;;;;;;;-141.97;57.47;47644.00;5013744;28;20687;-81
2023/06/19 05:18:16;;;;;;;9.40;7.73;;;;;;;-141.97;57.40;47688.22;5013869;28;20151;-83
2023/06/19 05:20:42;;;;;;;10.73;8.30;;;;;;;-141.97;56.56;47588.28;5013424;28;20257;-82
2023/06/19 05:23:07;;;;;;;10.27;7.50;;;;;;;-141.97;56.59;47561.38;5012981;28;20166;-82
2023/06/19 05:25:32;;;;;;;9.60;7.73;;;;;;;-141.97;56.15;47471.03;5013782;28;20183;-83
2023/06/19 05:27:58;;;;;;;11.23;7.37;;;;;;;-141.97;55.69;47620.94;5013328;28;20578;-83
2023/06/19 05:30:23;;;;;;;9.43;7.40;;;;;;;-141.97;55.73;47661.31;5013580;28;20166;-81
2023/06/19 05:32:48;;;;;;;9.00;7.10;;;;;;;-141.97;55.67;47546.00;5014218;28;20162;-83
2023/06/19 05:35:14;;;;;;;9.57;7.47;;;;;;;-141.97;55.67;47815.09;5012922;28;20166;-82
2023/06/19 05:37:42;;;;;;;10.00;6.83;;;;;;;-141.97;55.21;47611.34;5011735;28;20646;-83
2023/06/19 05:40:08;;;;;;;9.47;7.30;;;;;;;-141.97;55.32;47603.66;5013505;28;20577;-81
2023/06/19 05:42:35;;;;;;;10.47;7.63;;;;;;;-141.97;54.22;47617.09;5004267;28;20234;-84
2023/06/19 05:45:01;;;;;;;10.57;7.23;;;;;;;-141.97;54.65;47569.06;5013329;28;20178;-82
2023/06/19 05:47:28;;;;;;;10.40;7.20;;;;;;;-141.97;54.13;47584.44;5013050;28;20189;-82
2023/06/19 05:49:54;;;;;;;9.00;7.00;;;;;;;-141.97;53.24;47551.75;5011647;28;20167;-82
2023/06/19 05:52:19;;;;;;;14.80;7.60;;;;;;;-141.97;53.49;47734.34;5013653;28;20171;-82
2023/06/19 05:54:45;;;;;;;13.00;9.13;;;;;;;-141.97;52.72;47642.09;5012293;28;20220;-83
2023/06/19 05:57:11;;;;;;;11.13;8.07;;;;;;;-141.97;53.41;47499.84;5013307;28;20170;-80
2023/06/19 05:59:36;;;;;;;11.23;7.40;;;;;;;-141.97;52.50;47626.72;5012957;28;20167;-82
2023/06/19 06:02:03;;;;;;;9.07;6.73;;;;;;;-141.97;52.40;47611.34;5012397;28;20174;-82
2023/06/19 06:04:28;;;;;;;9.07;7.10;;;;;;;-141.97;52.51;47595.97;5012175;28;20219;-81
2023/06/19 06:06:54;;;;;;;9.83;7.27;;;;;;;-141.97;52.69;47607.50;5012939;28;20288;-80
2023/06/19 06:09:19;;;;;;;11.93;7.43;;;;;;;-141.97;52.37;47607.50;5012340;28;20238;-81
2023/06/19 06:11:45;;;;;;;11.23;8.70;;;;;;;-141.97;52.74;47694.00;5012941;28;20159;-81
2023/06/19 06:14:10;;;;;;;10.00;7.67;;;;;;;-141.97;52.88;47561.38;5011835;28;20239;-80
2023/06/19 06:16:36;;;;;;;11.77;8.23;;;;;;;-141.97;52.57;47634.41;5012702;28;20162;-81
2023/06/19 06:19:01;;;;;;;10.20;7.67;;;;;;;-141.97;52.47;47603.66;5012078;28;20624;-80
2023/06/19 06:21:26;;;;;;;10.93;7.37;;;;;;;-141.97;51.86;47724.75;5012752;28;20174;-82
2023/06/19 06:23:53;;;;;;;7.80;7.00;;;;;;;-141.97;51.45;47615.19;5012478;28;20285;-81
2023/06/19 06:26:18;;;;;;;9.60;7.13;;;;;;;-141.97;51.85;47642.09;5012578;28;20193;-80
2023/06/19 06:28:44;;;;;;;7.93;7.13;;;;;;;-141.97;50.96;47565.22;5012647;28;20534;-80
2023/06/19 06:31:09;;;;;;;9.97;7.37;;;;;;;-141.97;50.63;47601.72;5011908;28;20163;-82
2023/06/19 06:33:34;;;;;;;12.57;7.83;;;;;;;-141.97;50.91;47597.88;5011501;28;21019;-80
2023/06/19 06:36:00;;;;;;;9.70;7.30;;;;;;;-141.97;50.43;47793.94;5012894;28;20233;-81
2023/06/19 06:38:25;;;;;;;10.87;7.50;;;;;;;-141.97;50.85;47622.88;5012442;28;20163;-80
2023/06/19 06:40:51;;;;;;;11.13;7.17;;;;;;;-141.97;50.69;47611.34;5012739;28;20670;-81
2023/06/19 06:43:17;;;;;;;9.13;6.83;;;;;;;-141.97;50.50;47603.66;5011797;28;20155;-81
2023/06/19 06:45:42;;;;;;;10.07;6.53;;;;;;;-141.97;50.03;47601.72;5012912;28;20199;-82
2023/06/19 06:48:08;;;;;;;11.87;7.43;;;;;;;-141.97;49.74;47749.72;5012481;28;20171;-80
2023/06/19 06:50:33;;;;;;;8.73;6.83;;;;;;;-141.97;49.95;47563.28;5012688;28;20170;-81
2023/06/19 06:52:59;;;;;;;8.33;7.10;;;;;;;-141.97;49.75;47807.41;5010862;28;20178;-80
2023/06/19 06:55:25;;;;;;;9.63;6.93;;;;;;;-141.97;48.13;47553.69;5011780;28;20254;-80
2023/06/19 06:57:50;;;;;;;8.70;6.50;;;;;;;-141.97;47.84;47592.13;5011651;28;20516;-81
2023/06/19 07:00:18;;;;;;;8.23;6.83;;;;;;;-141.97;47.96;47815.09;5012460;28;20248;-82
2023/06/19 07:02:44;;;;;;;8.80;7.00;;;;;;;-141.97;48.70;47563.28;5012129;28;20170;-82
2023/06/19 07:05:10;;;;;;;9.55;7.07;;;;;;;-141.97;48.56;47595.97;5011708;28;20200;-82
2023/06/19 07:07:36;;;;;;;10.38;7.07;;;;;;;-141.97;47.54;47580.59;5012932;28;20255;-85
2023/06/19 07:10:02;;;;;;;7.63;6.55;;;;;;;-141.97;46.53;47584.44;5004446;28;20299;-82
2023/06/19 07:12:27;;;;;;;8.35;6.18;;;;;;;-141.97;47.06;47446.03;5013523;28;20180;-84
2023/06/19 07:14:56;;;;;;;8.50;6.68;;;;;;;-141.97;47.54;47480.63;5016893;28;20191;-82
2023/06/19 07:17:22;;;;;;;11.75;7.10;;;;;;;-141.97;47.34;47547.91;5017318;28;20179;-84
2023/06/19 07:19:47;;;;;;;8.27;6.45;;;;;;;-141.97;45.78;47538.28;5017327;28;20185;-82
2023/06/19 07:22:14;;;;;;;9.48;6.30;;;;;;;-141.97;46.59;47519.06;5016423;28;20161;-83
2023/06/19 07:24:40;;;;;;;8.10;6.88;;;;;;;-141.97;46.60;47588.28;5015554;28;20217;-82
2023/06/19 07:27:06;;;;;;;8.85;6.40;;;;;;;-141.97;46.37;47547.91;5016060;28;20729;-83
2023/06/19 07:29:32;;;;;;;8.40;6.43;;;;;;;-141.97;46.45;47544.06;5016318;28;20200;-82
2023/06/19 07:31:58;;;;;;;9.18;6.03;;;;;;;-141.97;45.81;47574.81;5015537;28;20169;-82
2023/06/19 07:34:23;;;;;;;9.32;6.95;;;;;;;-141.97;45.71;47463.34;5014205;28;20269;-83
2023/06/19 07:36:49;;;;;;;8.55;6.85;;;;;;;-141.97;45.39;47580.59;5014320;28;20175;-82
2023/06/19 07:39:14;;;;;;;11.60;6.50;;;;;;;-141.97;44.91;47832.38;5000600;28;20192;-83
2023/06/19 07:41:40;;;;;;;7.93;6.85;;;;;;;-141.97;44.83;47551.75;4996005;28;20590;-81
2023/06/19 07:44:05;;;;;;;8.77;6.45;;;;;;;-141.97;45.18;47476.78;5000974;28;20672;-82
2023/06/19 07:46:31;;;;;;;7.60;6.65;;;;;;;-141.97;45.16;47638.25;5014286;28;20210;-82
2023/06/19 07:48:56;;;;;;;8.05;6.60;;;;;;;-141.97;44.59;47509.47;5015679;28;20601;-83
2023/06/19 07:51:21;;;;;;;7.97;6.85;;;;;;;-141.97;43.32;47517.16;5014800;28;20234;-83
2023/06/19 07:53:47;;;;;;;7.28;6.43;;;;;;;-141.97;43.00;47430.66;5014790;28;21168;-85
2023/06/19 07:56:12;;;;;;;10.43;7.10;;;;;;;-141.97;43.14;47778.56;5015457;28;20223;-81
2023/06/19 07:58:38;;;;;;;8.43;6.68;;;;;;;-141.97;43.01;47780.47;5014899;28;20157;-81
2023/06/19 08:01:03;;;;;;;8.02;6.55;;;;;;;-141.97;42.95;47542.16;5014558;28;20167;-80
2023/06/19 08:03:29;;;;;;;9.00;6.80;;;;;;;-141.97;42.97;47553.69;5015351;28;20250;-82
2023/06/19 08:05:55;;;;;;;9.98;7.25;;;;;;;-141.97;43.18;47524.84;4995830;28;20631;-81
2023/06/19 08:08:21;;;;;;;10.18;7.20;;;;;;;-141.97;43.09;47542.16;4995073;28;20229;-80
2023/06/19 08:10:46;;;;;;;8.65;7.22;;;;;;;-141.97;42.36;47507.53;4995425;28;20174;-81
2023/06/19 08:13:11;;;;;;;9.20;6.65;;;;;;;-141.97;41.08;47461.41;5010295;28;20178;-82
2023/06/19 08:15:37;;;;;;;9.32;7.10;;;;;;;-141.97;40.92;47515.22;5012223;28;20266;-81
2023/06/19 08:18:02;;;;;;;10.55;7.18;;;;;;;-141.97;41.27;47542.16;5014700;28;20185;-82
2023/06/19 08:20:28;;;;;;;9.40;6.93;;;;;;;-141.97;40.90;47461.41;5015489;28;20163;-82
2023/06/19 08:22:53;;;;;;;9.20;7.18;;;;;;;-141.97;41.62;47574.81;5015230;28;20643;-81
2023/06/19 08:25:19;;;;;;;8.70;7.00;;;;;;;-141.97;42.11;47497.94;5012959;28;20242;-80
2023/06/19 08:27:47;;;;;;;10.98;6.55;;;;;;;-141.97;41.36;47530.59;5014452;28;20183;-81
2023/06/19 08:30:13;;;;;;;8.50;6.70;;;;;;;-141.97;41.30;47572.91;5015170;28;20611;-81
2023/06/19 08:32:39;;;;;;;8.00;6.55;;;;;;;-141.97;41.26;47565.22;5014273;28;20193;-81
2023/06/19 08:35:04;;;;;;;11.73;7.50;;;;;;;-141.97;40.31;47455.66;5014340;28;20542;-81
2023/06/19 08:37:30;;;;;;;8.70;6.53;;;;;;;-141.97;40.08;47536.38;5014194;28;20173;-82
2023/06/19 08:39:59;;;;;;;9.63;6.72;;;;;;;-141.97;40.24;47532.53;5014221;28;20181;-80
2023/06/19 08:42:25;;;;;;;9.55;7.00;;;;;;;-141.97;40.00;47449.88;5004722;28;20676;-80
2023/06/19 08:44:50;;;;;;;8.15;7.30;;;;;;;-141.97;39.31;47530.59;5013937;28;20338;-81
2023/06/19 08:47:16;;;;;;;7.65;6.82;;;;;;;-141.97;40.04;47743.97;5014005;28;20251;-81
2023/06/19 08:49:42;;;;;;;10.23;7.03;;;;;;;-141.97;40.06;47521.00;5014235;28;20174;-79
2023/06/19 08:52:08;;;;;;;9.30;6.88;;;;;;;-141.97;39.51;47521.00;5013963;28;20274;-80
2023/06/19 08:54:33;;;;;;;9.15;6.40;;;;;;;-141.97;40.42;47521.00;5012108;28;20228;-81
2023/06/19 08:57:02;;;;;;;8.30;6.85;;;;;;;-141.97;40.47;47507.53;5013889;28;20158;-80
2023/06/19 08:59:31;;;;;;;9.00;6.95;;;;;;;-141.97;40.33;47519.06;5013707;28;20181;-80
2023/06/19 09:01:57;;;;;;;11.10;6.88;;;;;;;-141.97;39.44;47461.41;5014156;28;20163;-80
2023/06/19 09:04:28;;;;;;;8.00;7.10;;;;;;;-141.97;39.85;47519.06;5013483;28;20170;-81
2023/06/19 09:07:02;;;;;;;9.65;6.90;;;;;;;-141.97;39.07;47542.16;5013806;28;20229;-80
2023/06/19 09:09:28;;;;;;;8.85;6.50;;;;;;;-141.97;39.10;47465.25;5012921;28;20233;-81
2023/06/19 09:12:15;;;;;;;7.72;6.43;;;;;;;-141.97;38.58;47519.06;5013612;28;20162;-81
2023/06/19 09:14:43;;;;;;;8.05;6.28;;;;;;;-141.97;38.93;47519.06;5013255;28;20180;-80
2023/06/19 09:17:17;;;;;;;8.13;6.85;;;;;;;-141.97;39.43;47492.16;5013296;28;20170;-81
2023/06/19 09:19:53;;;;;;;7.90;6.57;;;;;;;-141.97;39.16;47496.00;5018256;28;20206;-81
2023/06/19 09:22:21;;;;;;;8.27;6.35;;;;;;;-141.97;38.43;47517.16;5013088;28;20159;-82
2023/06/19 09:24:47;;;;;;;8.70;6.88;;;;;;;-141.97;38.44;47476.78;5012610;28;20180;-81
2023/06/19 09:27:14;;;;;;;8.00;6.53;;;;;;;-141.97;38.64;47542.16;5012974;28;20196;-81
2023/06/19 09:29:44;;;;;;;7.90;7.10;;;;;;;-141.97;38.72;47511.38;5013279;28;20174;-81
2023/06/19 09:32:24;;;;;;;9.30;6.88;;;;;;;-141.97;39.19;47490.25;5013724;28;20165;-82
2023/06/19 09:34:51;;;;;;;8.05;7.07;;;;;;;-141.97;39.26;47526.75;5013180;28;20163;-80
2023/06/19 09:37:26;;;;;;;7.47;6.78;;;;;;;-141.97;38.12;47519.06;5012980;28;20379;-81
2023/06/19 09:40:12;;;;;;;7.80;7.00;;;;;;;-141.97;37.66;47457.56;5012780;28;20209;-82
2023/06/19 09:42:39;;;;;;;8.40;6.25;;;;;;;-141.97;37.96;47478.72;5003148;28;20233;-82
2023/06/19 09:45:07;;;;;;;9.45;7.05;;;;;;;-141.97;37.68;47469.09;5010661;28;20244;-81
2023/06/19 09:47:42;;;;;;;8.60;6.90;;;;;;;-141.97;37.95;47486.41;5013097;28;20734;-81
2023/06/19 09:50:11;;;;;;;8.40;7.10;;;;;;;-141.97;38.15;47507.53;5013438;28;20172;-81
2023/06/19 09:52:36;;;;;;;8.10;7.05;;;;;;;-141.97;37.60;47436.44;5013054;28;20200;-81
2023/06/19 09:55:04;;;;;;;8.10;7.13;;;;;;;-141.97;37.03;47501.78;5012178;28;20182;-81
2023/06/19 09:57:31;;;;;;;9.48;6.97;;;;;;;-141.97;36.64;47524.84;5012005;28;20548;-81
2023/06/19 09:59:59;;;;;;;7.18;6.07;;;;;;;-141.97;34.84;47369.16;5012354;28;20162;-81
2023/06/19 10:02:27;;;;;;;6.38;5.78;;;;;;;-141.97;35.00;47492.16;5012449;28;20197;-80
2023/06/19 10:04:57;;;;;;;8.20;6.18;;;;;;;-141.97;35.94;47255.78;5011022;28;20177;-80
2023/06/19 10:07:27;;;;;;;7.15;6.22;;;;;;;-141.97;35.39;47469.09;5012806;28;20171;-81
2023/06/19 10:10:26;;;;;;;6.47;5.82;;;;;;;-141.97;35.83;47463.34;5012250;28;20241;-80
2023/06/19 10:12:55;;;;;;;8.57;6.15;;;;;;;-141.97;35.88;47453.72;5013894;28;20196;-82
2023/06/19 10:15:21;;;;;;;8.45;5.85;;;;;;;-141.97;35.21;47446.03;5029697;28;20173;-80
2023/06/19 10:17:52;;;;;;;7.63;6.38;;;;;;;-141.97;35.06;47434.50;5029637;28;20189;-82
2023/06/19 10:20:31;;;;;;;6.18;5.60;;;;;;;-141.97;35.37;47717.06;5030007;28;20243;-81
2023/06/19 10:22:59;;;;;;;7.68;5.50;;;;;;;-141.97;35.17;47465.25;5030069;28;20688;-81
2023/06/19 10:25:28;;;;;;;6.60;5.53;;;;;;;-141.97;34.86;47482.56;5029695;28;20559;-81
2023/06/19 10:27:54;;;;;;;6.60;5.35;;;;;;;-141.97;34.32;47655.53;5030672;28;20312;-81
2023/06/19 10:30:20;;;;;;;6.15;5.13;;;;;;;-141.97;34.13;47430.66;5029617;28;20213;-80
2023/06/19 10:32:47;;;;;;;7.85;5.50;;;;;;;-141.97;34.99;47469.09;5029126;28;20216;-82
2023/06/19 10:35:13;;;;;;;7.57;5.72;;;;;;;-141.97;34.82;47326.88;5012843;28;20591;-82
2023/06/19 10:37:39;;;;;;;8.80;5.55;;;;;;;-141.97;35.04;47384.53;5029868;28;20760;-81
2023/06/19 10:40:10;;;;;;;7.07;5.07;;;;;;;-141.97;34.56;47357.63;5013343;28;20184;-81
2023/06/19 10:42:39;;;;;;;6.63;5.18;;;;;;;-141.97;34.51;47415.28;5003315;28;20290;-80
2023/06/19 10:45:06;;;;;;;8.20;5.45;;;;;;;-141.97;34.66;47380.69;5028887;28;20169;-80
2023/06/19 10:47:33;;;;;;;6.43;5.78;;;;;;;-141.97;34.85;47407.59;5029824;28;20159;-81
2023/06/19 10:49:58;;;;;;;6.47;5.72;;;;;;;-141.97;34.88;47373.00;5021439;28;20197;-82
2023/06/19 10:52:24;;;;;;;11.43;6.35;;;;;;;-141.97;35.39;47447.97;5016024;28;20242;-81
2023/06/19 10:54:54;;;;;;;6.78;5.90;;;;;;;-141.97;34.91;47373.00;5015670;28;20179;-80
2023/06/19 10:57:32;;;;;;;9.52;6.30;;;;;;;-141.97;35.59;47413.38;5015795;28;20147;-81
2023/06/19 11:00:00;;;;;;;7.65;6.00;;;;;;;-141.97;35.60;47457.56;5015747;28;20162;-81
2023/06/19 11:02:26;;;;;;;6.70;5.95;;;;;;;-141.97;35.63;47415.28;5016218;28;20163;-80
2023/06/19 11:04:55;;;;;;;10.68;6.43;;;;;;;-141.97;35.31;47434.50;5016053;28;20181;-81
2023/06/19 11:07:22;;;;;;;7.43;5.28;;;;;;;-141.97;34.15;47426.81;5015623;28;21003;-80
2023/06/19 11:09:48;;;;;;;7.10;5.35;;;;;;;-141.97;35.08;47371.09;5015235;28;20299;-80
2023/06/19 11:12:19;;;;;;;6.85;5.22;;;;;;;-141.97;34.21;47294.22;5014987;28;20167;-80